createdAt,value
2017-03-13T00:00:13.352Z,1019.98
2017-03-13T00:01:22.671Z,1020.01
2017-03-13T00:02:32.353Z,1020.01
2017-03-13T00:03:41.358Z,1020.02
2017-03-13T00:04:51.092Z,1020.06
2017-03-13T00:06:00.401Z,1020.07
2017-03-13T00:07:11.745Z,1020.12
2017-03-13T00:08:20.763Z,1020.09
2017-03-13T00:09:31.087Z,1020.08
2017-03-13T00:10:41.243Z,1020.09
2017-03-13T00:11:51.267Z,1020.1
2017-03-13T00:13:00.522Z,1020.08
2017-03-13T00:14:10.383Z,1020.1
2017-03-13T00:15:20.736Z,1020.07
2017-03-13T00:16:29.811Z,1020.07
2017-03-13T00:17:39.174Z,1020.11
2017-03-13T00:18:48.420Z,1020.1
2017-03-13T00:19:57.778Z,1020.1
2017-03-13T00:21:06.847Z,1020.06
2017-03-13T00:22:16.590Z,1020.07
2017-03-13T00:23:26.089Z,1020.06
2017-03-13T00:24:37.174Z,1020.09
2017-03-13T00:25:48.153Z,1020.11
2017-03-13T00:26:58.575Z,1020.13
2017-03-13T00:28:10.006Z,1020.15
2017-03-13T00:29:21.673Z,1020.15
2017-03-13T00:30:31.844Z,1020.23
2017-03-13T00:31:43.585Z,1020.23
2017-03-13T00:32:52.765Z,1020.2
2017-03-13T00:34:03.817Z,1020.26
2017-03-13T00:35:13.991Z,1020.27
2017-03-13T00:36:24.906Z,1020.26
2017-03-13T00:37:35.412Z,1020.31
2017-03-13T00:38:44.409Z,1020.31
2017-03-13T00:39:54.118Z,1020.33
2017-03-13T00:41:03.119Z,1020.35
2017-03-13T00:42:13.656Z,1020.33
2017-03-13T00:43:24.405Z,1020.24
2017-03-13T00:44:35.250Z,1020.3
2017-03-13T00:45:46.980Z,1020.28
2017-03-13T00:46:57.974Z,1020.27
2017-03-13T00:48:08.087Z,1020.27
2017-03-13T00:49:17.993Z,1020.2
2017-03-13T00:50:27.205Z,1020.25
2017-03-13T00:51:36.373Z,1020.26
2017-03-13T00:52:45.572Z,1020.24
2017-03-13T00:53:57.542Z,1020.26
2017-03-13T00:55:08.659Z,1020.25
2017-03-13T00:56:18.652Z,1020.23
2017-03-13T00:57:28.472Z,1020.24
2017-03-13T00:58:37.648Z,1020.21
2017-03-13T00:59:49.525Z,1020.23
2017-03-13T01:01:00.414Z,1020.23
2017-03-13T01:02:11.108Z,1020.24
2017-03-13T01:03:21.035Z,1020.27
2017-03-13T01:04:31.307Z,1020.26
2017-03-13T01:05:41.806Z,1020.24
2017-03-13T01:06:52.675Z,1020.27
2017-03-13T01:08:02.963Z,1020.24
2017-03-13T01:09:14.459Z,1020.24
2017-03-13T01:10:26.073Z,1020.18
2017-03-13T01:11:36.824Z,1020.14
2017-03-13T01:12:47.222Z,1020.12
2017-03-13T01:13:56.539Z,1020.16
2017-03-13T01:15:06.751Z,1020.14
2017-03-13T01:16:16.741Z,1020.12
2017-03-13T01:17:25.978Z,1020.09
2017-03-13T01:18:36.184Z,1020.08
2017-03-13T01:19:46.590Z,1020.1
2017-03-13T01:20:56.714Z,1020.1
2017-03-13T01:22:05.797Z,1020.08
2017-03-13T01:23:17.340Z,1020.09
2017-03-13T01:24:27.813Z,1020.07
2017-03-13T01:25:36.892Z,1020.08
2017-03-13T01:26:46.545Z,1020.09
2017-03-13T01:27:55.799Z,1020.1
2017-03-13T01:29:05.348Z,1020.08
2017-03-13T01:30:15.978Z,1020.11
2017-03-13T01:31:27.776Z,1020.1
2017-03-13T01:32:39.139Z,1020.1
2017-03-13T01:33:50.409Z,1020.07
2017-03-13T01:35:02.075Z,1020.01
2017-03-13T01:36:12.933Z,1020.02
2017-03-13T01:37:23.361Z,1020.01
2017-03-13T01:38:34.142Z,1020.03
2017-03-13T01:39:43.428Z,1020.01
2017-03-13T01:40:54.462Z,1019.98
2017-03-13T01:42:04.519Z,1019.99
2017-03-13T01:43:15.029Z,1019.95
2017-03-13T01:44:24.958Z,1019.92
2017-03-13T01:45:35.163Z,1019.94
2017-03-13T01:46:45.774Z,1019.95
2017-03-13T01:47:56.083Z,1019.98
2017-03-13T01:49:07.221Z,1019.96
2017-03-13T01:50:18.448Z,1019.93
2017-03-13T01:51:29.555Z,1019.9
2017-03-13T01:52:40.448Z,1019.97
2017-03-13T01:53:50.077Z,1019.96
2017-03-13T01:54:59.409Z,1019.94
2017-03-13T01:56:10.207Z,1019.96
2017-03-13T01:57:19.363Z,1019.99
2017-03-13T01:58:30.006Z,1019.99
2017-03-13T01:59:40.137Z,1020.03
2017-03-13T02:00:50.583Z,1019.96
2017-03-13T02:02:00.707Z,1019.97
2017-03-13T02:03:09.788Z,1019.99
2017-03-13T02:04:21.752Z,1019.99
2017-03-13T02:05:32.052Z,1019.97
2017-03-13T02:06:42.844Z,1019.99
2017-03-13T02:07:54.312Z,1019.99
2017-03-13T02:09:03.514Z,1020.02
2017-03-13T02:10:13.749Z,1019.99
2017-03-13T02:11:24.078Z,1019.99
2017-03-13T02:12:34.501Z,1020.03
2017-03-13T02:13:46.306Z,1020.02
2017-03-13T02:14:55.382Z,1020.04
2017-03-13T02:16:06.178Z,1020.05
2017-03-13T02:17:16.659Z,1020.04
2017-03-13T02:18:26.484Z,1020.06
2017-03-13T02:19:36.719Z,1020.03
2017-03-13T02:20:47.296Z,1020.05
2017-03-13T02:21:57.877Z,1020.05
2017-03-13T02:23:07.920Z,1020.05
2017-03-13T02:24:17.274Z,1020.07
2017-03-13T02:25:26.362Z,1020.05
2017-03-13T02:26:35.356Z,1020.09
2017-03-13T02:27:45.125Z,1020.08
2017-03-13T02:28:54.245Z,1020.1
2017-03-13T02:30:03.759Z,1020.09
2017-03-13T02:31:12.835Z,1020.07
2017-03-13T02:32:22.421Z,1020.08
2017-03-13T02:33:31.816Z,1020.1
2017-03-13T02:34:41.449Z,1020.12
2017-03-13T02:35:51.591Z,1020.13
2017-03-13T02:37:02.024Z,1020.14
2017-03-13T02:38:11.114Z,1020.19
2017-03-13T02:39:20.786Z,1020.2
2017-03-13T02:40:29.835Z,1020.18
2017-03-13T02:41:38.996Z,1020.2
2017-03-13T02:42:48.000Z,1020.18
2017-03-13T02:43:57.837Z,1020.22
2017-03-13T02:45:07.123Z,1020.22
2017-03-13T02:46:16.619Z,1020.2
2017-03-13T02:47:25.861Z,1020.23
2017-03-13T02:48:36.121Z,1020.23
2017-03-13T02:49:45.586Z,1020.2
2017-03-13T02:50:56.312Z,1020.21
2017-03-13T02:52:06.200Z,1020.25
2017-03-13T02:53:15.192Z,1020.19
2017-03-13T02:54:25.086Z,1020.17
2017-03-13T02:55:34.174Z,1020.15
2017-03-13T02:56:44.017Z,1020.15
2017-03-13T02:57:53.975Z,1020.16
2017-03-13T02:59:02.974Z,1020.17
2017-03-13T03:00:12.234Z,1020.17
2017-03-13T03:01:21.523Z,1020.18
2017-03-13T03:02:31.383Z,1020.21
2017-03-13T03:03:40.410Z,1020.17
2017-03-13T03:04:50.071Z,1020.19
2017-03-13T03:05:59.102Z,1020.18
2017-03-13T03:07:08.562Z,1020.13
2017-03-13T03:08:17.824Z,1020.17
2017-03-13T03:09:27.367Z,1020.12
2017-03-13T03:10:36.361Z,1020.09
2017-03-13T03:11:46.565Z,1020.06
2017-03-13T03:12:56.453Z,1020.06
2017-03-13T03:14:06.118Z,1020.03
2017-03-13T03:15:16.177Z,1020.03
2017-03-13T03:16:25.709Z,1020
2017-03-13T03:17:35.123Z,1020.02
2017-03-13T03:18:44.696Z,1020.05
2017-03-13T03:19:55.554Z,1020.06
2017-03-13T03:21:05.133Z,1020.15
2017-03-13T03:22:14.209Z,1020.06
2017-03-13T03:23:23.499Z,1020.06
2017-03-13T03:24:32.752Z,1020.02
2017-03-13T03:25:43.120Z,1020.04
2017-03-13T03:26:53.347Z,1020.1
2017-03-13T03:28:04.347Z,1020.16
2017-03-13T03:29:14.028Z,1020.1
2017-03-13T03:30:24.617Z,1020.12
2017-03-13T03:31:35.560Z,1020.14
2017-03-13T03:32:45.771Z,1020.13
2017-03-13T03:33:55.359Z,1020.11
2017-03-13T03:35:04.348Z,1020.14
2017-03-13T03:36:14.734Z,1020.11
2017-03-13T03:37:24.868Z,1020.15
2017-03-13T03:38:34.887Z,1020.13
2017-03-13T03:39:45.142Z,1020.12
2017-03-13T03:40:54.145Z,1020.11
2017-03-13T03:42:03.883Z,1020.12
2017-03-13T03:43:13.279Z,1020.1
2017-03-13T03:44:22.516Z,1020.08
2017-03-13T03:45:32.963Z,1020.09
2017-03-13T03:46:44.614Z,1020.09
2017-03-13T03:47:54.033Z,1020.03
2017-03-13T03:49:04.369Z,1020.05
2017-03-13T03:50:14.472Z,1020.04
2017-03-13T03:51:23.638Z,1020.1
2017-03-13T03:52:33.204Z,1020.09
2017-03-13T03:53:42.276Z,1020.1
2017-03-13T03:54:52.408Z,1020.09
2017-03-13T03:56:02.401Z,1020.1
2017-03-13T03:57:12.716Z,1020.11
2017-03-13T03:58:21.709Z,1020.12
2017-03-13T03:59:31.377Z,1020.11
2017-03-13T04:00:40.747Z,1020.14
2017-03-13T04:01:52.401Z,1020.12
2017-03-13T04:03:03.943Z,1020.18
2017-03-13T04:04:13.889Z,1020.18
2017-03-13T04:05:25.593Z,1020.22
2017-03-13T04:06:36.870Z,1020.17
2017-03-13T04:07:47.551Z,1020.23
2017-03-13T04:08:58.510Z,1020.24
2017-03-13T04:10:07.501Z,1020.21
2017-03-13T04:11:18.260Z,1020.2
2017-03-13T04:12:28.937Z,1020.15
2017-03-13T04:13:39.354Z,1020.19
2017-03-13T04:14:48.738Z,1020.19
2017-03-13T04:15:57.918Z,1020.18
2017-03-13T04:17:09.592Z,1020.21
2017-03-13T04:18:20.236Z,1020.21
2017-03-13T04:19:31.256Z,1020.2
2017-03-13T04:20:42.789Z,1020.24
2017-03-13T04:21:54.005Z,1020.22
2017-03-13T04:23:04.593Z,1020.2
2017-03-13T04:24:16.445Z,1020.25
2017-03-13T04:25:27.239Z,1020.29
2017-03-13T04:26:37.633Z,1020.27
2017-03-13T04:27:49.437Z,1020.27
2017-03-13T04:29:00.257Z,1020.27
2017-03-13T04:30:10.914Z,1020.31
2017-03-13T04:31:21.256Z,1020.33
2017-03-13T04:32:34.053Z,1020.33
2017-03-13T04:33:44.229Z,1020.29
2017-03-13T04:34:54.287Z,1020.31
2017-03-13T04:36:04.073Z,1020.31
2017-03-13T04:37:13.166Z,1020.33
2017-03-13T04:38:22.660Z,1020.34
2017-03-13T04:39:31.782Z,1020.37
2017-03-13T04:40:40.783Z,1020.42
2017-03-13T04:41:50.040Z,1020.46
2017-03-13T04:42:59.110Z,1020.47
2017-03-13T04:44:08.120Z,1020.48
2017-03-13T04:45:17.202Z,1020.5
2017-03-13T04:46:26.295Z,1020.52
2017-03-13T04:47:35.618Z,1020.51
2017-03-13T04:48:44.601Z,1020.5
2017-03-13T04:49:53.672Z,1020.47
2017-03-13T04:51:02.934Z,1020.49
2017-03-13T04:52:11.927Z,1020.47
2017-03-13T04:53:21.175Z,1020.46
2017-03-13T04:54:30.165Z,1020.49
2017-03-13T04:55:39.162Z,1020.52
2017-03-13T04:56:48.238Z,1020.49
2017-03-13T04:57:57.224Z,1020.47
2017-03-13T04:59:06.647Z,1020.52
2017-03-13T05:00:15.734Z,1020.53
2017-03-13T05:01:24.823Z,1020.52
2017-03-13T05:02:33.999Z,1020.56
2017-03-13T05:03:43.830Z,1020.51
2017-03-13T05:04:53.683Z,1020.51
2017-03-13T05:06:02.762Z,1020.5
2017-03-13T05:07:11.848Z,1020.52
2017-03-13T05:08:21.037Z,1020.58
2017-03-13T05:09:30.061Z,1020.56
2017-03-13T05:10:39.309Z,1020.63
2017-03-13T05:11:48.309Z,1020.63
2017-03-13T05:12:57.409Z,1020.67
2017-03-13T05:14:06.400Z,1020.67
2017-03-13T05:15:15.409Z,1020.71
2017-03-13T05:16:24.817Z,1020.68
2017-03-13T05:17:33.889Z,1020.69
2017-03-13T05:18:42.994Z,1020.72
2017-03-13T05:19:52.077Z,1020.7
2017-03-13T05:21:01.154Z,1020.73
2017-03-13T05:22:10.491Z,1020.73
2017-03-13T05:23:19.493Z,1020.75
2017-03-13T05:24:28.696Z,1020.77
2017-03-13T05:25:38.098Z,1020.78
2017-03-13T05:26:47.074Z,1020.77
2017-03-13T05:27:56.334Z,1020.82
2017-03-13T05:29:05.365Z,1020.76
2017-03-13T05:30:14.366Z,1020.77
2017-03-13T05:31:23.378Z,1020.76
2017-03-13T05:32:32.453Z,1020.76
2017-03-13T05:33:41.445Z,1020.7
2017-03-13T05:34:50.571Z,1020.72
2017-03-13T05:35:59.580Z,1020.75
2017-03-13T05:37:08.751Z,1020.8
2017-03-13T05:38:18.127Z,1020.81
2017-03-13T05:39:27.156Z,1020.82
2017-03-13T05:40:36.268Z,1020.83
2017-03-13T05:41:45.363Z,1020.85
2017-03-13T05:42:54.373Z,1020.86
2017-03-13T05:44:03.664Z,1020.87
2017-03-13T05:45:12.653Z,1020.91
2017-03-13T05:46:21.652Z,1020.88
2017-03-13T05:47:30.640Z,1020.91
2017-03-13T05:48:39.627Z,1020.92
2017-03-13T05:49:48.966Z,1020.9
2017-03-13T05:50:57.967Z,1020.86
2017-03-13T05:52:07.132Z,1020.91
2017-03-13T05:53:16.129Z,1020.89
2017-03-13T05:54:25.138Z,1020.91
2017-03-13T05:55:34.378Z,1020.94
2017-03-13T05:56:43.485Z,1020.92
2017-03-13T05:57:52.477Z,1020.96
2017-03-13T05:59:01.635Z,1020.97
2017-03-13T06:00:10.754Z,1020.94
2017-03-13T06:01:20.119Z,1020.96
2017-03-13T06:02:29.118Z,1020.98
2017-03-13T06:03:38.195Z,1020.99
2017-03-13T06:04:47.180Z,1021.02
2017-03-13T06:05:56.246Z,1021.02
2017-03-13T06:07:05.643Z,1021.03
2017-03-13T06:08:15.079Z,1021.07
2017-03-13T06:09:24.066Z,1021.05
2017-03-13T06:10:33.034Z,1021.09
2017-03-13T06:11:42.023Z,1021.06
2017-03-13T06:12:51.321Z,1021.07
2017-03-13T06:14:00.311Z,1021.09
2017-03-13T06:15:09.478Z,1021.06
2017-03-13T06:16:18.485Z,1021.08
2017-03-13T06:17:27.465Z,1021.1
2017-03-13T06:18:37.320Z,1021.13
2017-03-13T06:19:47.033Z,1021.12
2017-03-13T06:20:56.129Z,1021.07
2017-03-13T06:22:05.299Z,1021.09
2017-03-13T06:23:14.483Z,1021.07
2017-03-13T06:24:23.729Z,1021.07
2017-03-13T06:25:32.817Z,1021.06
2017-03-13T06:26:41.887Z,1021.08
2017-03-13T06:27:50.879Z,1021.13
2017-03-13T06:28:59.893Z,1021.2
2017-03-13T06:30:09.137Z,1021.2
2017-03-13T06:31:18.152Z,1021.23
2017-03-13T06:32:27.142Z,1021.3
2017-03-13T06:33:36.262Z,1021.29
2017-03-13T06:34:45.702Z,1021.37
2017-03-13T06:35:54.940Z,1021.35
2017-03-13T06:37:03.932Z,1021.34
2017-03-13T06:38:12.943Z,1021.36
2017-03-13T06:39:22.018Z,1021.35
2017-03-13T06:40:31.016Z,1021.37
2017-03-13T06:41:40.309Z,1021.35
2017-03-13T06:42:49.354Z,1021.41
2017-03-13T06:43:58.762Z,1021.4
2017-03-13T06:45:09.392Z,1021.43
2017-03-13T06:46:33.321Z,1021.45
2017-03-13T06:47:49.794Z,1021.43
2017-03-13T06:48:58.783Z,1021.48
2017-03-13T06:50:08.168Z,1021.45
2017-03-13T06:51:17.327Z,1021.44
2017-03-13T06:52:26.872Z,1021.45
2017-03-13T06:53:35.885Z,1021.45
2017-03-13T06:54:45.224Z,1021.49
2017-03-13T06:55:54.368Z,1021.45
2017-03-13T06:57:03.482Z,1021.43
2017-03-13T06:58:12.925Z,1021.41
2017-03-13T06:59:22.065Z,1021.46
2017-03-13T07:00:31.230Z,1021.48
2017-03-13T07:01:40.394Z,1021.48
2017-03-13T07:02:49.386Z,1021.46
2017-03-13T07:03:58.639Z,1021.43
2017-03-13T07:05:08.594Z,1021.39
2017-03-13T07:06:17.615Z,1021.41
2017-03-13T07:07:26.675Z,1021.39
2017-03-13T07:08:35.767Z,1021.39
2017-03-13T07:09:45.103Z,1021.44
2017-03-13T07:10:54.256Z,1021.43
2017-03-13T07:12:03.841Z,1021.44
2017-03-13T07:13:12.982Z,1021.47
2017-03-13T07:14:21.973Z,1021.43
2017-03-13T07:15:31.332Z,1021.47
2017-03-13T07:16:40.426Z,1021.48
2017-03-13T07:17:49.510Z,1021.53
2017-03-13T07:18:58.603Z,1021.55
2017-03-13T07:20:07.651Z,1021.56
2017-03-13T07:21:16.965Z,1021.56
2017-03-13T07:22:26.096Z,1021.58
2017-03-13T07:23:35.081Z,1021.61
2017-03-13T07:24:44.151Z,1021.6
2017-03-13T07:25:53.274Z,1021.62
2017-03-13T07:27:02.792Z,1021.61
2017-03-13T07:28:12.002Z,1021.62
2017-03-13T07:29:21.193Z,1021.63
2017-03-13T07:30:30.180Z,1021.62
2017-03-13T07:31:39.244Z,1021.59
2017-03-13T07:32:48.622Z,1021.58
2017-03-13T07:33:57.732Z,1021.59
2017-03-13T07:35:06.831Z,1021.59
2017-03-13T07:36:15.812Z,1021.61
2017-03-13T07:37:24.927Z,1021.64
2017-03-13T07:38:34.307Z,1021.6
2017-03-13T07:39:43.422Z,1021.62
2017-03-13T07:40:53.381Z,1021.61
2017-03-13T07:42:02.729Z,1021.64
2017-03-13T07:43:12.313Z,1021.62
2017-03-13T07:44:21.870Z,1021.64
2017-03-13T07:45:30.976Z,1021.67
2017-03-13T07:46:40.152Z,1021.62
2017-03-13T07:47:49.148Z,1021.63
2017-03-13T07:48:58.218Z,1021.63
2017-03-13T07:50:07.855Z,1021.63
2017-03-13T07:51:16.925Z,1021.62
2017-03-13T07:52:26.078Z,1021.66
2017-03-13T07:53:35.439Z,1021.66
2017-03-13T07:54:44.605Z,1021.62
2017-03-13T07:55:54.255Z,1021.67
2017-03-13T07:57:03.490Z,1021.71
2017-03-13T07:58:12.566Z,1021.73
2017-03-13T07:59:21.965Z,1021.71
2017-03-13T08:00:31.037Z,1021.74
2017-03-13T08:01:40.593Z,1021.77
2017-03-13T08:02:49.593Z,1021.74
2017-03-13T08:03:58.579Z,1021.76
2017-03-13T08:05:07.567Z,1021.75
2017-03-13T08:06:16.556Z,1021.77
2017-03-13T08:07:25.901Z,1021.77
2017-03-13T08:08:35.291Z,1021.74
2017-03-13T08:09:44.389Z,1021.72
2017-03-13T08:10:53.714Z,1021.77
2017-03-13T08:12:02.813Z,1021.74
2017-03-13T08:13:12.120Z,1021.72
2017-03-13T08:14:21.112Z,1021.73
2017-03-13T08:15:30.142Z,1021.69
2017-03-13T08:16:39.317Z,1021.72
2017-03-13T08:17:48.307Z,1021.75
2017-03-13T08:18:57.732Z,1021.76
2017-03-13T08:20:06.725Z,1021.77
2017-03-13T08:21:15.723Z,1021.8
2017-03-13T08:22:24.718Z,1021.79
2017-03-13T08:23:33.906Z,1021.79
2017-03-13T08:24:43.147Z,1021.79
2017-03-13T08:25:52.145Z,1021.79
2017-03-13T08:27:01.167Z,1021.76
2017-03-13T08:28:10.231Z,1021.76
2017-03-13T08:29:19.426Z,1021.74
2017-03-13T08:30:28.659Z,1021.74
2017-03-13T08:31:37.663Z,1021.72
2017-03-13T08:32:46.665Z,1021.74
2017-03-13T08:33:55.752Z,1021.76
2017-03-13T08:35:04.850Z,1021.72
2017-03-13T08:36:14.158Z,1021.76
2017-03-13T08:37:23.147Z,1021.76
2017-03-13T08:38:32.237Z,1021.73
2017-03-13T08:39:41.325Z,1021.69
2017-03-13T08:40:50.322Z,1021.81
2017-03-13T08:41:59.720Z,1021.85
2017-03-13T08:43:08.810Z,1021.8
2017-03-13T08:44:17.795Z,1021.86
2017-03-13T08:45:27.223Z,1021.83
2017-03-13T08:46:36.235Z,1021.82
2017-03-13T08:47:45.533Z,1021.76
2017-03-13T08:48:54.546Z,1021.74
2017-03-13T08:50:03.965Z,1021.74
2017-03-13T08:51:12.966Z,1021.74
2017-03-13T08:52:22.136Z,1021.74
2017-03-13T08:53:31.523Z,1021.73
2017-03-13T08:54:40.593Z,1021.73
2017-03-13T08:55:50.089Z,1021.76
2017-03-13T08:56:59.073Z,1021.73
2017-03-13T08:58:08.068Z,1021.78
2017-03-13T08:59:17.366Z,1021.79
2017-03-13T09:00:26.370Z,1021.78
2017-03-13T09:01:35.386Z,1021.78
2017-03-13T09:02:44.473Z,1021.79
2017-03-13T09:03:53.474Z,1021.79
2017-03-13T09:05:02.760Z,1021.81
2017-03-13T09:06:11.772Z,1021.85
2017-03-13T09:07:20.779Z,1021.85
2017-03-13T09:08:29.885Z,1021.91
2017-03-13T09:09:38.883Z,1021.92
2017-03-13T09:10:48.153Z,1021.96
2017-03-13T09:11:57.155Z,1021.96
2017-03-13T09:13:06.153Z,1021.95
2017-03-13T09:14:15.237Z,1021.95
2017-03-13T09:15:24.237Z,1021.96
2017-03-13T09:16:33.628Z,1021.99
2017-03-13T09:17:42.628Z,1021.95
2017-03-13T09:18:51.642Z,1021.95
2017-03-13T09:20:00.649Z,1021.92
2017-03-13T09:21:09.650Z,1021.88
2017-03-13T09:22:19.086Z,1021.93
2017-03-13T09:23:28.088Z,1021.97
2017-03-13T09:24:37.073Z,1021.99
2017-03-13T09:25:46.061Z,1021.93
2017-03-13T09:26:55.070Z,1021.9
2017-03-13T09:28:04.463Z,1021.88
2017-03-13T09:29:13.444Z,1021.9
2017-03-13T09:30:22.445Z,1021.88
2017-03-13T09:31:31.533Z,1021.84
2017-03-13T09:32:40.534Z,1021.86
2017-03-13T09:33:49.851Z,1021.89
2017-03-13T09:34:58.847Z,1021.86
2017-03-13T09:36:07.952Z,1021.92
2017-03-13T09:37:17.047Z,1021.98
2017-03-13T09:38:26.050Z,1021.93
2017-03-13T09:39:35.924Z,1021.92
2017-03-13T09:40:44.985Z,1021.97
2017-03-13T09:41:53.977Z,1022
2017-03-13T09:43:03.168Z,1022.03
2017-03-13T09:44:12.264Z,1022.01
2017-03-13T09:45:21.586Z,1022.02
2017-03-13T09:46:30.690Z,1022.03
2017-03-13T09:47:39.784Z,1022.06
2017-03-13T09:48:48.770Z,1022.01
2017-03-13T09:49:58.128Z,1022.02
2017-03-13T09:51:07.521Z,1022.06
2017-03-13T09:52:16.683Z,1021.95
2017-03-13T09:53:25.821Z,1021.99
2017-03-13T09:54:34.818Z,1021.99
2017-03-13T09:55:43.888Z,1021.96
2017-03-13T09:56:53.145Z,1021.99
2017-03-13T09:58:02.259Z,1021.97
2017-03-13T09:59:11.362Z,1021.94
2017-03-13T10:00:20.463Z,1021.92
2017-03-13T10:01:29.907Z,1021.89
2017-03-13T10:02:39.173Z,1021.89
2017-03-13T10:03:48.360Z,1021.85
2017-03-13T10:04:57.362Z,1021.88
2017-03-13T10:06:06.478Z,1021.94
2017-03-13T10:07:15.613Z,1021.89
2017-03-13T10:08:24.913Z,1021.88
2017-03-13T10:09:34.324Z,1021.88
2017-03-13T10:10:43.340Z,1021.9
2017-03-13T10:11:52.349Z,1021.93
2017-03-13T10:13:01.333Z,1021.85
2017-03-13T10:14:11.492Z,1021.84
2017-03-13T10:15:20.490Z,1021.87
2017-03-13T10:16:29.496Z,1021.79
2017-03-13T10:17:38.893Z,1021.82
2017-03-13T10:18:48.302Z,1021.81
2017-03-13T10:19:57.691Z,1021.78
2017-03-13T10:21:06.775Z,1021.82
2017-03-13T10:22:16.059Z,1021.81
2017-03-13T10:23:25.058Z,1021.77
2017-03-13T10:24:34.147Z,1021.75
2017-03-13T10:25:43.474Z,1021.76
2017-03-13T10:26:52.466Z,1021.77
2017-03-13T10:28:01.472Z,1021.72
2017-03-13T10:29:10.480Z,1021.75
2017-03-13T10:30:19.637Z,1021.76
2017-03-13T10:31:29.570Z,1021.77
2017-03-13T10:32:38.579Z,1021.91
2017-03-13T10:33:47.570Z,1021.87
2017-03-13T10:34:56.669Z,1021.85
2017-03-13T10:36:05.657Z,1021.9
2017-03-13T10:37:15.042Z,1021.9
2017-03-13T10:38:24.149Z,1021.9
2017-03-13T10:39:33.296Z,1021.95
2017-03-13T10:40:42.381Z,1021.9
2017-03-13T10:41:51.557Z,1021.9
2017-03-13T10:43:00.955Z,1021.92
2017-03-13T10:44:10.025Z,1021.86
2017-03-13T10:45:19.121Z,1021.93
2017-03-13T10:46:28.346Z,1021.85
2017-03-13T10:47:37.439Z,1021.79
2017-03-13T10:48:46.748Z,1021.82
2017-03-13T10:49:55.758Z,1021.82
2017-03-13T10:51:04.852Z,1021.82
2017-03-13T10:52:13.853Z,1021.88
2017-03-13T10:53:22.857Z,1021.88
2017-03-13T10:54:32.204Z,1021.88
2017-03-13T10:55:41.319Z,1021.9
2017-03-13T10:56:50.402Z,1021.89
2017-03-13T10:57:59.516Z,1021.87
2017-03-13T10:59:08.501Z,1021.88
2017-03-13T11:00:17.937Z,1021.92
2017-03-13T11:01:27.349Z,1021.87
2017-03-13T11:02:36.356Z,1021.91
2017-03-13T11:03:45.458Z,1021.86
2017-03-13T11:04:54.650Z,1021.88
2017-03-13T11:06:03.958Z,1021.87
2017-03-13T11:07:12.948Z,1021.87
2017-03-13T11:08:21.937Z,1021.89
2017-03-13T11:09:30.949Z,1021.88
2017-03-13T11:10:39.949Z,1021.87
2017-03-13T11:11:49.481Z,1021.85
2017-03-13T11:12:58.475Z,1021.87
2017-03-13T11:14:07.477Z,1021.86
2017-03-13T11:15:16.483Z,1021.87
2017-03-13T11:16:25.505Z,1021.87
2017-03-13T11:17:34.908Z,1021.81
2017-03-13T11:18:43.919Z,1021.79
2017-03-13T11:19:53.029Z,1021.78
2017-03-13T11:21:02.124Z,1021.81
2017-03-13T11:22:11.135Z,1021.78
2017-03-13T11:23:20.446Z,1021.75
2017-03-13T11:24:29.528Z,1021.73
2017-03-13T11:25:38.548Z,1021.71
2017-03-13T11:26:47.660Z,1021.71
2017-03-13T11:27:56.675Z,1021.71
2017-03-13T11:29:05.982Z,1021.74
2017-03-13T11:30:15.085Z,1021.63
2017-03-13T11:31:24.071Z,1021.63
2017-03-13T11:32:33.055Z,1021.67
2017-03-13T11:33:42.158Z,1021.6
2017-03-13T11:34:51.963Z,1021.58
2017-03-13T11:36:01.035Z,1021.57
2017-03-13T11:37:10.834Z,1021.53
2017-03-13T11:38:19.836Z,1021.53
2017-03-13T11:39:28.837Z,1021.58
2017-03-13T11:40:38.093Z,1021.56
2017-03-13T11:41:47.098Z,1021.54
2017-03-13T11:42:56.120Z,1021.52
2017-03-13T11:44:05.127Z,1021.51
2017-03-13T11:45:14.133Z,1021.49
2017-03-13T11:46:23.511Z,1021.46
2017-03-13T11:47:32.500Z,1021.47
2017-03-13T11:48:41.611Z,1021.47
2017-03-13T11:49:50.636Z,1021.48
2017-03-13T11:50:59.667Z,1021.5
2017-03-13T11:52:08.972Z,1021.56
2017-03-13T11:53:17.975Z,1021.56
2017-03-13T11:54:26.958Z,1021.5
2017-03-13T11:55:36.364Z,1021.45
2017-03-13T11:56:45.369Z,1021.43
2017-03-13T11:57:54.732Z,1021.4
2017-03-13T11:59:03.754Z,1021.37
2017-03-13T12:00:12.762Z,1021.41
2017-03-13T12:01:22.342Z,1021.36
2017-03-13T12:02:31.935Z,1021.36
2017-03-13T12:03:41.229Z,1021.34
2017-03-13T12:04:50.240Z,1021.3
2017-03-13T12:05:59.234Z,1021.27
2017-03-13T12:07:08.246Z,1021.3
2017-03-13T12:08:17.248Z,1021.32
2017-03-13T12:09:26.965Z,1021.27
2017-03-13T12:10:35.978Z,1021.26
2017-03-13T12:11:45.000Z,1021.19
2017-03-13T12:12:54.104Z,1021.27
2017-03-13T12:14:03.193Z,1021.28
2017-03-13T12:15:12.902Z,1021.27
2017-03-13T12:16:22.074Z,1021.29
2017-03-13T12:17:31.256Z,1021.27
2017-03-13T12:18:40.351Z,1021.24
2017-03-13T12:19:49.362Z,1021.3
2017-03-13T12:20:58.652Z,1021.23
2017-03-13T12:22:07.889Z,1021.25
2017-03-13T12:23:18.860Z,1021.25
2017-03-13T12:24:27.963Z,1021.21
2017-03-13T12:25:36.952Z,1021.24
2017-03-13T12:26:46.204Z,1021.22
2017-03-13T12:27:55.293Z,1021.22
2017-03-13T12:29:04.300Z,1021.21
2017-03-13T12:30:13.305Z,1021.2
2017-03-13T12:31:22.355Z,1021.19
2017-03-13T12:32:31.611Z,1021.18
2017-03-13T12:33:40.704Z,1021.15
2017-03-13T12:34:49.802Z,1021.09
2017-03-13T12:35:58.915Z,1021.14
2017-03-13T12:37:08.020Z,1021.07
2017-03-13T12:38:17.261Z,1021.11
2017-03-13T12:39:26.693Z,1021.12
2017-03-13T12:40:35.878Z,1021.07
2017-03-13T12:41:44.968Z,1021.05
2017-03-13T12:42:53.964Z,1021.03
2017-03-13T12:44:03.275Z,1021.02
2017-03-13T12:45:12.279Z,1021.08
2017-03-13T12:46:21.293Z,1021.07
2017-03-13T12:47:30.403Z,1021.08
2017-03-13T12:48:39.495Z,1021.11
2017-03-13T12:49:48.850Z,1021.16
2017-03-13T12:50:57.873Z,1021.12
2017-03-13T12:55:15.542Z,1021.17
2017-03-13T12:56:24.545Z,1021.15
2017-03-13T12:57:33.733Z,1021.16
2017-03-13T12:58:42.835Z,1021.19
2017-03-13T12:59:51.921Z,1021.24
2017-03-13T13:01:01.165Z,1021.22
2017-03-13T13:02:10.161Z,1021.16
2017-03-13T13:03:19.401Z,1021.15
2017-03-13T13:04:28.452Z,1021.16
2017-03-13T13:05:37.606Z,1021.12
2017-03-13T13:06:46.826Z,1021.14
2017-03-13T13:07:55.794Z,1021.12
2017-03-13T13:09:04.839Z,1021.09
2017-03-13T13:10:13.973Z,1021.08
2017-03-13T13:11:22.932Z,1021.14
2017-03-13T13:12:32.157Z,1021.16
2017-03-13T13:13:41.203Z,1021.18
2017-03-13T13:14:50.162Z,1021.11
2017-03-13T13:15:59.209Z,1021.12
2017-03-13T13:17:08.176Z,1021.13
2017-03-13T13:18:17.533Z,1021.14
2017-03-13T13:19:26.494Z,1021.13
2017-03-13T13:20:35.458Z,1021.16
2017-03-13T13:21:44.425Z,1021.21
2017-03-13T13:22:53.390Z,1021.18
2017-03-13T13:24:02.611Z,1021.15
2017-03-13T13:25:11.587Z,1021.17
2017-03-13T13:26:20.640Z,1021.22
2017-03-13T13:27:29.688Z,1021.22
2017-03-13T13:28:38.679Z,1021.18
2017-03-13T13:29:47.895Z,1021.16
2017-03-13T13:30:56.861Z,1021.17
2017-03-13T13:32:05.827Z,1021.16
2017-03-13T13:33:14.827Z,1021.16
2017-03-13T13:34:23.882Z,1021.11
2017-03-13T13:35:33.564Z,1021.09
2017-03-13T13:36:42.614Z,1021.11
2017-03-13T13:37:51.585Z,1021.08
2017-03-13T13:39:00.547Z,1021.05
2017-03-13T13:40:09.511Z,1021.04
2017-03-13T13:41:18.949Z,1021.03
2017-03-13T13:42:28.018Z,1021.02
2017-03-13T13:43:37.400Z,1020.99
2017-03-13T13:44:46.364Z,1021.01
2017-03-13T13:45:55.326Z,1020.99
2017-03-13T13:47:04.542Z,1020.99
2017-03-13T13:48:13.514Z,1020.93
2017-03-13T13:49:22.491Z,1020.92
2017-03-13T13:50:31.465Z,1020.96
2017-03-13T13:51:40.430Z,1020.88
2017-03-13T13:52:49.868Z,1020.92
2017-03-13T13:53:58.924Z,1020.89
2017-03-13T13:55:07.889Z,1020.89
2017-03-13T13:56:16.847Z,1020.88
2017-03-13T13:57:25.820Z,1020.86
2017-03-13T13:58:35.265Z,1020.84
2017-03-13T13:59:44.231Z,1020.84
2017-03-13T14:00:53.229Z,1020.87
2017-03-13T14:02:02.191Z,1020.86
2017-03-13T14:03:11.159Z,1020.9
2017-03-13T14:04:20.506Z,1020.91
2017-03-13T14:05:29.469Z,1020.93